sensor_id;sensor_type;location;lat;lon;timestamp;P1;durP1;ratioP1;P2;durP2;ratioP2
36353;SDS011;22383;51.114;13.666;2024-02-26T00:01:14;47.63;;;19.33;;
36353;SDS011;22383;51.114;13.666;2024-02-26T00:03:41;48.95;;;21.40;;
36353;SDS011;22383;51.114;13.666;2024-02-26T00:06:09;50.20;;;20.92;;
36353;SDS011;22383;51.114;13.666;2024-02-26T00:08:36;44.42;;;20.63;;
36353;SDS011;22383;51.114;13.666;2024-02-26T00:11:03;46.55;;;20.90;;
36353;SDS011;22383;51.114;13.666;2024-02-26T00:13:30;47.83;;;21.20;;
36353;SDS011;22383;51.114;13.666;2024-02-26T00:15:58;43.28;;;19.50;;
36353;SDS011;22383;51.114;13.666;2024-02-26T00:18:25;45.25;;;19.55;;
36353;SDS011;22383;51.114;13.666;2024-02-26T00:20:52;47.50;;;19.77;;
36353;SDS011;22383;51.114;13.666;2024-02-26T00:23:20;49.10;;;20.90;;
36353;SDS011;22383;51.114;13.666;2024-02-26T00:25:47;41.47;;;20.15;;
36353;SDS011;22383;51.114;13.666;2024-02-26T00:28:14;50.95;;;21.63;;
36353;SDS011;22383;51.114;13.666;2024-02-26T00:30:41;46.83;;;20.98;;
36353;SDS011;22383;51.114;13.666;2024-02-26T00:33:09;45.92;;;21.50;;
36353;SDS011;22383;51.114;13.666;2024-02-26T00:35:37;60.88;;;24.00;;
36353;SDS011;22383;51.114;13.666;2024-02-26T00:40:31;56.83;;;24.15;;
36353;SDS011;22383;51.114;13.666;2024-02-26T00:42:58;63.72;;;25.23;;
36353;SDS011;22383;51.114;13.666;2024-02-26T00:45:27;67.72;;;26.83;;
36353;SDS011;22383;51.114;13.666;2024-02-26T00:47:55;66.38;;;26.15;;
36353;SDS011;22383;51.114;13.666;2024-02-26T00:50:22;58.13;;;25.67;;
36353;SDS011;22383;51.114;13.666;2024-02-26T00:52:50;65.07;;;25.60;;
36353;SDS011;22383;51.114;13.666;2024-02-26T00:55:17;59.80;;;26.00;;
36353;SDS011;22383;51.114;13.666;2024-02-26T00:57:44;62.95;;;26.38;;
36353;SDS011;22383;51.114;13.666;2024-02-26T01:00:11;67.97;;;28.45;;
36353;SDS011;22383;51.114;13.666;2024-02-26T01:02:40;73.53;;;28.88;;
36353;SDS011;22383;51.114;13.666;2024-02-26T01:05:08;65.88;;;27.20;;
36353;SDS011;22383;51.114;13.666;2024-02-26T01:07:38;64.35;;;28.13;;
36353;SDS011;22383;51.114;13.666;2024-02-26T01:10:06;65.40;;;27.45;;
36353;SDS011;22383;51.114;13.666;2024-02-26T01:12:34;70.30;;;26.13;;
36353;SDS011;22383;51.114;13.666;2024-02-26T01:15:02;54.78;;;25.63;;
36353;SDS011;22383;51.114;13.666;2024-02-26T01:17:30;63.28;;;26.92;;
36353;SDS011;22383;51.114;13.666;2024-02-26T01:19:58;69.28;;;26.38;;
36353;SDS011;22383;51.114;13.666;2024-02-26T01:22:25;55.80;;;23.55;;
36353;SDS011;22383;51.114;13.666;2024-02-26T01:24:52;54.78;;;24.65;;
36353;SDS011;22383;51.114;13.666;2024-02-26T01:27:19;57.88;;;24.38;;
36353;SDS011;22383;51.114;13.666;2024-02-26T01:29:46;48.67;;;21.63;;
36353;SDS011;22383;51.114;13.666;2024-02-26T01:32:13;57.97;;;23.23;;
36353;SDS011;22383;51.114;13.666;2024-02-26T01:34:40;47.17;;;22.42;;
36353;SDS011;22383;51.114;13.666;2024-02-26T01:37:08;48.40;;;20.60;;
36353;SDS011;22383;51.114;13.666;2024-02-26T01:39:35;43.10;;;18.55;;
36353;SDS011;22383;51.114;13.666;2024-02-26T01:42:02;41.10;;;18.23;;
36353;SDS011;22383;51.114;13.666;2024-02-26T01:44:30;52.67;;;18.98;;
36353;SDS011;22383;51.114;13.666;2024-02-26T01:46:57;37.85;;;17.65;;
36353;SDS011;22383;51.114;13.666;2024-02-26T01:49:25;37.03;;;16.48;;
36353;SDS011;22383;51.114;13.666;2024-02-26T01:51:52;35.67;;;16.80;;
36353;SDS011;22383;51.114;13.666;2024-02-26T01:54:19;38.53;;;16.48;;
36353;SDS011;22383;51.114;13.666;2024-02-26T01:56:47;43.20;;;16.25;;
36353;SDS011;22383;51.114;13.666;2024-02-26T01:59:16;37.60;;;17.42;;
36353;SDS011;22383;51.114;13.666;2024-02-26T02:01:44;34.75;;;16.20;;
36353;SDS011;22383;51.114;13.666;2024-02-26T02:04:14;36.50;;;15.30;;
36353;SDS011;22383;51.114;13.666;2024-02-26T02:06:42;31.70;;;15.70;;
36353;SDS011;22383;51.114;13.666;2024-02-26T02:09:12;31.73;;;15.13;;
36353;SDS011;22383;51.114;13.666;2024-02-26T02:11:39;31.60;;;15.70;;
36353;SDS011;22383;51.114;13.666;2024-02-26T02:14:07;32.97;;;16.20;;
36353;SDS011;22383;51.114;13.666;2024-02-26T02:16:34;32.60;;;15.70;;
36353;SDS011;22383;51.114;13.666;2024-02-26T02:19:01;34.28;;;17.13;;
36353;SDS011;22383;51.114;13.666;2024-02-26T02:21:28;38.97;;;16.45;;
36353;SDS011;22383;51.114;13.666;2024-02-26T02:23:55;35.67;;;15.65;;
36353;SDS011;22383;51.114;13.666;2024-02-26T02:26:23;32.88;;;15.25;;
36353;SDS011;22383;51.114;13.666;2024-02-26T02:28:50;37.20;;;15.52;;
36353;SDS011;22383;51.114;13.666;2024-02-26T02:31:17;35.67;;;17.02;;
36353;SDS011;22383;51.114;13.666;2024-02-26T02:33:44;35.47;;;16.10;;
36353;SDS011;22383;51.114;13.666;2024-02-26T02:36:12;38.53;;;16.45;;
36353;SDS011;22383;51.114;13.666;2024-02-26T02:38:48;39.00;;;15.70;;
36353;SDS011;22383;51.114;13.666;2024-02-26T02:41:19;32.85;;;15.82;;
36353;SDS011;22383;51.114;13.666;2024-02-26T02:43:46;41.38;;;16.45;;
36353;SDS011;22383;51.114;13.666;2024-02-26T02:46:14;34.88;;;15.50;;
36353;SDS011;22383;51.114;13.666;2024-02-26T02:48:41;35.85;;;14.88;;
36353;SDS011;22383;51.114;13.666;2024-02-26T02:51:09;39.58;;;15.65;;
36353;SDS011;22383;51.114;13.666;2024-02-26T02:53:36;38.45;;;16.40;;
36353;SDS011;22383;51.114;13.666;2024-02-26T02:56:04;41.05;;;15.07;;
36353;SDS011;22383;51.114;13.666;2024-02-26T02:58:31;39.92;;;16.75;;
36353;SDS011;22383;51.114;13.666;2024-02-26T03:00:59;30.08;;;15.55;;
36353;SDS011;22383;51.114;13.666;2024-02-26T03:03:28;31.83;;;15.88;;
36353;SDS011;22383;51.114;13.666;2024-02-26T03:05:56;32.00;;;15.43;;
36353;SDS011;22383;51.114;13.666;2024-02-26T03:08:23;32.33;;;15.27;;
36353;SDS011;22383;51.114;13.666;2024-02-26T03:10:52;33.03;;;14.95;;
36353;SDS011;22383;51.114;13.666;2024-02-26T03:13:20;31.80;;;15.35;;
36353;SDS011;22383;51.114;13.666;2024-02-26T03:15:47;37.35;;;15.40;;
36353;SDS011;22383;51.114;13.666;2024-02-26T03:18:14;33.28;;;14.23;;
36353;SDS011;22383;51.114;13.666;2024-02-26T03:20:42;29.00;;;14.15;;
36353;SDS011;22383;51.114;13.666;2024-02-26T03:23:09;31.13;;;14.63;;
36353;SDS011;22383;51.114;13.666;2024-02-26T03:25:39;28.67;;;14.75;;
36353;SDS011;22383;51.114;13.666;2024-02-26T03:28:06;31.67;;;13.82;;
36353;SDS011;22383;51.114;13.666;2024-02-26T03:30:34;34.53;;;14.50;;
36353;SDS011;22383;51.114;13.666;2024-02-26T03:33:01;31.77;;;15.20;;
36353;SDS011;22383;51.114;13.666;2024-02-26T03:35:30;28.05;;;13.95;;
36353;SDS011;22383;51.114;13.666;2024-02-26T03:37:57;28.92;;;13.32;;
36353;SDS011;22383;51.114;13.666;2024-02-26T03:40:24;29.63;;;14.15;;
36353;SDS011;22383;51.114;13.666;2024-02-26T03:42:51;33.83;;;14.55;;
36353;SDS011;22383;51.114;13.666;2024-02-26T03:45:20;33.58;;;14.63;;
36353;SDS011;22383;51.114;13.666;2024-02-26T03:47:48;27.20;;;13.18;;
36353;SDS011;22383;51.114;13.666;2024-02-26T03:50:16;33.03;;;13.98;;
36353;SDS011;22383;51.114;13.666;2024-02-26T03:52:43;28.90;;;13.50;;
36353;SDS011;22383;51.114;13.666;2024-02-26T03:55:10;32.15;;;13.98;;
36353;SDS011;22383;51.114;13.666;2024-02-26T03:57:37;25.67;;;12.60;;
36353;SDS011;22383;51.114;13.666;2024-02-26T04:00:05;30.83;;;12.85;;
36353;SDS011;22383;51.114;13.666;2024-02-26T04:02:36;28.77;;;12.93;;
36353;SDS011;22383;51.114;13.666;2024-02-26T04:05:03;30.92;;;12.75;;
36353;SDS011;22383;51.114;13.666;2024-02-26T04:09:58;23.77;;;11.27;;
36353;SDS011;22383;51.114;13.666;2024-02-26T04:12:27;27.83;;;12.18;;
36353;SDS011;22383;51.114;13.666;2024-02-26T04:14:54;26.58;;;12.40;;
36353;SDS011;22383;51.114;13.666;2024-02-26T04:17:21;24.98;;;11.45;;
36353;SDS011;22383;51.114;13.666;2024-02-26T04:19:48;28.60;;;12.52;;
36353;SDS011;22383;51.114;13.666;2024-02-26T04:22:15;29.85;;;13.48;;
36353;SDS011;22383;51.114;13.666;2024-02-26T04:24:42;32.58;;;12.68;;
36353;SDS011;22383;51.114;13.666;2024-02-26T04:27:10;31.88;;;12.13;;
36353;SDS011;22383;51.114;13.666;2024-02-26T04:29:37;25.58;;;12.18;;
36353;SDS011;22383;51.114;13.666;2024-02-26T04:32:04;27.23;;;11.98;;
36353;SDS011;22383;51.114;13.666;2024-02-26T04:34:32;32.78;;;12.68;;
36353;SDS011;22383;51.114;13.666;2024-02-26T04:36:59;26.33;;;11.80;;
36353;SDS011;22383;51.114;13.666;2024-02-26T04:39:26;24.63;;;12.32;;
36353;SDS011;22383;51.114;13.666;2024-02-26T04:41:54;26.80;;;11.52;;
36353;SDS011;22383;51.114;13.666;2024-02-26T04:44:21;31.88;;;11.88;;
36353;SDS011;22383;51.114;13.666;2024-02-26T04:46:49;29.33;;;12.15;;
36353;SDS011;22383;51.114;13.666;2024-02-26T04:49:16;25.80;;;12.10;;
36353;SDS011;22383;51.114;13.666;2024-02-26T04:51:43;24.30;;;11.20;;
36353;SDS011;22383;51.114;13.666;2024-02-26T04:54:11;22.00;;;11.45;;
36353;SDS011;22383;51.114;13.666;2024-02-26T04:56:38;24.52;;;12.15;;
36353;SDS011;22383;51.114;13.666;2024-02-26T04:59:05;27.60;;;10.75;;
36353;SDS011;22383;51.114;13.666;2024-02-26T05:01:32;27.00;;;11.75;;
36353;SDS011;22383;51.114;13.666;2024-02-26T05:03:59;24.65;;;11.38;;
36353;SDS011;22383;51.114;13.666;2024-02-26T05:06:27;24.90;;;11.65;;
36353;SDS011;22383;51.114;13.666;2024-02-26T05:08:54;23.27;;;11.13;;
36353;SDS011;22383;51.114;13.666;2024-02-26T05:11:22;23.85;;;11.45;;
36353;SDS011;22383;51.114;13.666;2024-02-26T05:13:49;24.70;;;11.43;;
36353;SDS011;22383;51.114;13.666;2024-02-26T05:16:16;23.42;;;12.05;;
36353;SDS011;22383;51.114;13.666;2024-02-26T05:18:43;24.88;;;10.85;;
36353;SDS011;22383;51.114;13.666;2024-02-26T05:21:11;25.83;;;11.20;;
36353;SDS011;22383;51.114;13.666;2024-02-26T05:23:38;25.73;;;10.88;;
36353;SDS011;22383;51.114;13.666;2024-02-26T05:26:05;30.33;;;10.25;;
36353;SDS011;22383;51.114;13.666;2024-02-26T05:28:32;29.05;;;10.48;;
36353;SDS011;22383;51.114;13.666;2024-02-26T05:30:59;24.25;;;10.43;;
36353;SDS011;22383;51.114;13.666;2024-02-26T05:33:27;20.30;;;10.02;;
36353;SDS011;22383;51.114;13.666;2024-02-26T05:35:54;33.97;;;13.13;;
36353;SDS011;22383;51.114;13.666;2024-02-26T05:38:21;31.55;;;14.40;;
36353;SDS011;22383;51.114;13.666;2024-02-26T05:40:48;35.60;;;14.73;;
36353;SDS011;22383;51.114;13.666;2024-02-26T05:43:19;30.48;;;12.00;;
36353;SDS011;22383;51.114;13.666;2024-02-26T05:45:46;30.17;;;12.23;;
36353;SDS011;22383;51.114;13.666;2024-02-26T05:48:13;26.80;;;11.93;;
36353;SDS011;22383;51.114;13.666;2024-02-26T05:50:40;27.50;;;11.98;;
36353;SDS011;22383;51.114;13.666;2024-02-26T05:53:07;23.25;;;11.13;;
36353;SDS011;22383;51.114;13.666;2024-02-26T05:55:35;27.70;;;11.88;;
36353;SDS011;22383;51.114;13.666;2024-02-26T05:58:02;22.88;;;10.52;;
36353;SDS011;22383;51.114;13.666;2024-02-26T06:00:29;20.75;;;9.75;;
36353;SDS011;22383;51.114;13.666;2024-02-26T06:02:56;26.00;;;9.52;;
36353;SDS011;22383;51.114;13.666;2024-02-26T06:05:23;24.05;;;10.90;;
36353;SDS011;22383;51.114;13.666;2024-02-26T06:07:51;20.42;;;9.05;;
36353;SDS011;22383;51.114;13.666;2024-02-26T06:10:18;21.08;;;9.40;;
36353;SDS011;22383;51.114;13.666;2024-02-26T06:12:48;19.02;;;9.45;;
36353;SDS011;22383;51.114;13.666;2024-02-26T06:15:15;21.80;;;8.82;;
36353;SDS011;22383;51.114;13.666;2024-02-26T06:17:43;21.35;;;8.98;;
36353;SDS011;22383;51.114;13.666;2024-02-26T06:20:10;15.63;;;7.32;;
36353;SDS011;22383;51.114;13.666;2024-02-26T06:22:40;21.40;;;7.28;;
36353;SDS011;22383;51.114;13.666;2024-02-26T06:25:08;19.45;;;7.20;;
36353;SDS011;22383;51.114;13.666;2024-02-26T06:27:35;17.42;;;6.55;;
36353;SDS011;22383;51.114;13.666;2024-02-26T06:30:03;17.67;;;7.03;;
36353;SDS011;22383;51.114;13.666;2024-02-26T06:32:30;22.45;;;7.93;;
36353;SDS011;22383;51.114;13.666;2024-02-26T06:34:57;12.55;;;6.80;;
36353;SDS011;22383;51.114;13.666;2024-02-26T06:37:25;13.98;;;6.53;;
36353;SDS011;22383;51.114;13.666;2024-02-26T06:39:52;11.52;;;6.43;;
36353;SDS011;22383;51.114;13.666;2024-02-26T06:42:19;20.70;;;6.22;;
36353;SDS011;22383;51.114;13.666;2024-02-26T06:44:46;17.05;;;6.15;;
36353;SDS011;22383;51.114;13.666;2024-02-26T06:47:13;17.15;;;7.20;;
36353;SDS011;22383;51.114;13.666;2024-02-26T06:49:41;16.42;;;6.80;;
36353;SDS011;22383;51.114;13.666;2024-02-26T06:52:08;15.48;;;6.13;;
36353;SDS011;22383;51.114;13.666;2024-02-26T06:54:35;14.52;;;6.00;;
36353;SDS011;22383;51.114;13.666;2024-02-26T06:57:02;13.32;;;5.90;;
36353;SDS011;22383;51.114;13.666;2024-02-26T07:01:57;10.50;;;5.25;;
36353;SDS011;22383;51.114;13.666;2024-02-26T07:04:24;16.30;;;5.78;;
36353;SDS011;22383;51.114;13.666;2024-02-26T07:06:51;12.10;;;5.78;;
36353;SDS011;22383;51.114;13.666;2024-02-26T07:09:19;18.83;;;7.03;;
36353;SDS011;22383;51.114;13.666;2024-02-26T07:11:46;10.95;;;6.15;;
36353;SDS011;22383;51.114;13.666;2024-02-26T07:14:13;19.23;;;6.50;;
36353;SDS011;22383;51.114;13.666;2024-02-26T07:16:40;11.00;;;5.82;;
36353;SDS011;22383;51.114;13.666;2024-02-26T07:19:07;13.80;;;6.22;;
36353;SDS011;22383;51.114;13.666;2024-02-26T07:21:34;11.73;;;6.40;;
36353;SDS011;22383;51.114;13.666;2024-02-26T07:24:02;14.38;;;6.10;;
36353;SDS011;22383;51.114;13.666;2024-02-26T07:26:29;21.00;;;5.05;;
36353;SDS011;22383;51.114;13.666;2024-02-26T07:28:57;11.02;;;5.18;;
36353;SDS011;22383;51.114;13.666;2024-02-26T07:31:25;12.07;;;5.60;;
36353;SDS011;22383;51.114;13.666;2024-02-26T07:33:52;9.25;;;5.20;;
36353;SDS011;22383;51.114;13.666;2024-02-26T07:36:19;9.95;;;5.13;;
36353;SDS011;22383;51.114;13.666;2024-02-26T07:38:47;16.20;;;6.40;;
36353;SDS011;22383;51.114;13.666;2024-02-26T07:41:16;11.00;;;5.60;;
36353;SDS011;22383;51.114;13.666;2024-02-26T07:43:43;11.52;;;5.63;;
36353;SDS011;22383;51.114;13.666;2024-02-26T07:46:11;12.13;;;6.00;;
36353;SDS011;22383;51.114;13.666;2024-02-26T07:48:38;12.00;;;6.55;;
36353;SDS011;22383;51.114;13.666;2024-02-26T07:51:06;14.40;;;6.00;;
36353;SDS011;22383;51.114;13.666;2024-02-26T07:53:33;14.95;;;7.05;;
36353;SDS011;22383;51.114;13.666;2024-02-26T07:56:00;16.92;;;7.53;;
36353;SDS011;22383;51.114;13.666;2024-02-26T07:58:28;14.07;;;6.75;;
36353;SDS011;22383;51.114;13.666;2024-02-26T08:00:55;25.50;;;7.82;;
36353;SDS011;22383;51.114;13.666;2024-02-26T08:03:22;17.77;;;6.53;;
36353;SDS011;22383;51.114;13.666;2024-02-26T08:05:50;19.02;;;7.35;;
36353;SDS011;22383;51.114;13.666;2024-02-26T08:08:19;15.85;;;6.95;;
36353;SDS011;22383;51.114;13.666;2024-02-26T08:10:46;20.52;;;8.48;;
36353;SDS011;22383;51.114;13.666;2024-02-26T08:13:13;25.65;;;9.55;;
36353;SDS011;22383;51.114;13.666;2024-02-26T08:15:40;37.00;;;11.85;;
36353;SDS011;22383;51.114;13.666;2024-02-26T08:18:07;27.88;;;9.38;;
36353;SDS011;22383;51.114;13.666;2024-02-26T08:20:35;18.35;;;9.45;;
36353;SDS011;22383;51.114;13.666;2024-02-26T08:23:02;20.48;;;8.82;;
36353;SDS011;22383;51.114;13.666;2024-02-26T08:25:30;27.65;;;9.65;;
36353;SDS011;22383;51.114;13.666;2024-02-26T08:27:57;35.08;;;11.00;;
36353;SDS011;22383;51.114;13.666;2024-02-26T08:30:24;28.90;;;10.98;;
36353;SDS011;22383;51.114;13.666;2024-02-26T08:32:51;23.38;;;10.63;;
36353;SDS011;22383;51.114;13.666;2024-02-26T08:35:19;23.10;;;10.27;;
36353;SDS011;22383;51.114;13.666;2024-02-26T08:37:47;25.52;;;11.40;;
36353;SDS011;22383;51.114;13.666;2024-02-26T08:40:15;23.17;;;9.93;;
36353;SDS011;22383;51.114;13.666;2024-02-26T08:42:42;22.63;;;10.68;;
36353;SDS011;22383;51.114;13.666;2024-02-26T08:45:10;20.83;;;11.48;;
36353;SDS011;22383;51.114;13.666;2024-02-26T08:47:38;23.48;;;10.45;;
36353;SDS011;22383;51.114;13.666;2024-02-26T08:50:05;26.42;;;11.38;;
36353;SDS011;22383;51.114;13.666;2024-02-26T08:52:33;25.27;;;10.45;;
36353;SDS011;22383;51.114;13.666;2024-02-26T08:55:00;24.00;;;9.82;;
36353;SDS011;22383;51.114;13.666;2024-02-26T08:57:27;18.58;;;10.20;;
36353;SDS011;22383;51.114;13.666;2024-02-26T08:59:55;21.50;;;9.65;;
36353;SDS011;22383;51.114;13.666;2024-02-26T09:02:22;24.10;;;10.90;;
36353;SDS011;22383;51.114;13.666;2024-02-26T09:04:49;22.33;;;9.52;;
36353;SDS011;22383;51.114;13.666;2024-02-26T09:07:18;21.52;;;9.73;;
36353;SDS011;22383;51.114;13.666;2024-02-26T09:09:45;21.25;;;9.75;;
36353;SDS011;22383;51.114;13.666;2024-02-26T09:12:12;17.15;;;9.10;;
36353;SDS011;22383;51.114;13.666;2024-02-26T09:14:40;22.42;;;9.90;;
36353;SDS011;22383;51.114;13.666;2024-02-26T09:17:07;20.13;;;9.30;;
36353;SDS011;22383;51.114;13.666;2024-02-26T09:19:34;18.02;;;9.00;;
36353;SDS011;22383;51.114;13.666;2024-02-26T09:22:01;23.30;;;9.95;;
36353;SDS011;22383;51.114;13.666;2024-02-26T09:24:29;23.65;;;9.52;;
36353;SDS011;22383;51.114;13.666;2024-02-26T09:26:56;18.13;;;8.93;;
36353;SDS011;22383;51.114;13.666;2024-02-26T09:29:23;17.17;;;9.02;;
36353;SDS011;22383;51.114;13.666;2024-02-26T09:31:51;22.08;;;9.48;;
36353;SDS011;22383;51.114;13.666;2024-02-26T09:34:18;21.17;;;9.65;;
36353;SDS011;22383;51.114;13.666;2024-02-26T09:36:45;19.30;;;9.20;;
36353;SDS011;22383;51.114;13.666;2024-02-26T09:39:12;17.88;;;9.38;;
36353;SDS011;22383;51.114;13.666;2024-02-26T09:41:44;20.73;;;9.73;;
36353;SDS011;22383;51.114;13.666;2024-02-26T09:44:11;20.00;;;9.45;;
36353;SDS011;22383;51.114;13.666;2024-02-26T09:46:42;18.42;;;9.88;;
36353;SDS011;22383;51.114;13.666;2024-02-26T09:49:09;18.92;;;10.05;;
36353;SDS011;22383;51.114;13.666;2024-02-26T09:51:39;17.20;;;9.15;;
36353;SDS011;22383;51.114;13.666;2024-02-26T09:56:38;20.00;;;9.25;;
36353;SDS011;22383;51.114;13.666;2024-02-26T09:59:21;21.07;;;8.93;;
36353;SDS011;22383;51.114;13.666;2024-02-26T10:01:49;20.40;;;10.35;;
36353;SDS011;22383;51.114;13.666;2024-02-26T10:04:17;23.88;;;10.45;;
36353;SDS011;22383;51.114;13.666;2024-02-26T10:06:45;20.38;;;9.95;;
36353;SDS011;22383;51.114;13.666;2024-02-26T10:09:14;17.45;;;9.25;;
36353;SDS011;22383;51.114;13.666;2024-02-26T10:11:43;20.35;;;9.40;;
36353;SDS011;22383;51.114;13.666;2024-02-26T10:14:10;21.98;;;9.77;;
36353;SDS011;22383;51.114;13.666;2024-02-26T10:16:39;19.13;;;10.00;;
36353;SDS011;22383;51.114;13.666;2024-02-26T10:19:06;19.88;;;9.88;;
36353;SDS011;22383;51.114;13.666;2024-02-26T10:21:33;19.63;;;10.18;;
36353;SDS011;22383;51.114;13.666;2024-02-26T10:24:01;20.77;;;10.20;;
36353;SDS011;22383;51.114;13.666;2024-02-26T10:26:28;22.67;;;9.43;;
36353;SDS011;22383;51.114;13.666;2024-02-26T10:28:55;24.67;;;10.10;;
36353;SDS011;22383;51.114;13.666;2024-02-26T10:31:26;25.92;;;10.05;;
36353;SDS011;22383;51.114;13.666;2024-02-26T10:33:55;26.30;;;10.60;;
36353;SDS011;22383;51.114;13.666;2024-02-26T10:36:26;18.63;;;9.73;;
36353;SDS011;22383;51.114;13.666;2024-02-26T10:39:13;18.50;;;9.73;;
36353;SDS011;22383;51.114;13.666;2024-02-26T10:41:41;23.05;;;9.48;;
36353;SDS011;22383;51.114;13.666;2024-02-26T10:44:12;17.10;;;9.65;;
36353;SDS011;22383;51.114;13.666;2024-02-26T10:46:46;17.88;;;9.18;;
36353;SDS011;22383;51.114;13.666;2024-02-26T10:49:14;20.83;;;9.55;;
36353;SDS011;22383;51.114;13.666;2024-02-26T10:51:52;19.75;;;9.20;;
36353;SDS011;22383;51.114;13.666;2024-02-26T10:54:26;17.40;;;9.18;;
36353;SDS011;22383;51.114;13.666;2024-02-26T10:56:56;19.60;;;8.73;;
36353;SDS011;22383;51.114;13.666;2024-02-26T10:59:24;19.98;;;9.20;;
36353;SDS011;22383;51.114;13.666;2024-02-26T11:01:52;18.75;;;9.68;;
36353;SDS011;22383;51.114;13.666;2024-02-26T11:04:23;19.88;;;8.80;;
36353;SDS011;22383;51.114;13.666;2024-02-26T11:06:54;21.08;;;9.18;;
36353;SDS011;22383;51.114;13.666;2024-02-26T11:09:24;18.27;;;8.80;;
36353;SDS011;22383;51.114;13.666;2024-02-26T11:14:22;17.33;;;8.50;;
36353;SDS011;22383;51.114;13.666;2024-02-26T11:16:54;18.25;;;8.85;;
36353;SDS011;22383;51.114;13.666;2024-02-26T11:19:22;15.27;;;8.50;;
36353;SDS011;22383;51.114;13.666;2024-02-26T11:21:52;18.20;;;8.80;;
36353;SDS011;22383;51.114;13.666;2024-02-26T11:24:19;16.73;;;9.00;;
36353;SDS011;22383;51.114;13.666;2024-02-26T11:26:48;19.00;;;9.43;;
36353;SDS011;22383;51.114;13.666;2024-02-26T11:29:49;23.63;;;8.93;;
36353;SDS011;22383;51.114;13.666;2024-02-26T11:32:19;16.50;;;8.18;;
36353;SDS011;22383;51.114;13.666;2024-02-26T11:34:46;15.77;;;8.50;;
36353;SDS011;22383;51.114;13.666;2024-02-26T11:37:16;17.33;;;8.18;;
36353;SDS011;22383;51.114;13.666;2024-02-26T11:39:45;19.20;;;8.35;;
36353;SDS011;22383;51.114;13.666;2024-02-26T11:42:15;18.73;;;8.45;;
36353;SDS011;22383;51.114;13.666;2024-02-26T11:44:43;16.58;;;8.20;;
36353;SDS011;22383;51.114;13.666;2024-02-26T11:49:44;21.35;;;8.68;;
36353;SDS011;22383;51.114;13.666;2024-02-26T11:52:12;14.82;;;7.47;;
36353;SDS011;22383;51.114;13.666;2024-02-26T11:57:20;17.38;;;8.60;;
36353;SDS011;22383;51.114;13.666;2024-02-26T12:00:12;17.20;;;8.35;;
36353;SDS011;22383;51.114;13.666;2024-02-26T12:02:41;13.85;;;8.10;;
36353;SDS011;22383;51.114;13.666;2024-02-26T12:07:47;17.60;;;8.77;;
36353;SDS011;22383;51.114;13.666;2024-02-26T12:10:39;12.48;;;7.57;;
36353;SDS011;22383;51.114;13.666;2024-02-26T12:18:18;17.02;;;8.40;;
36353;SDS011;22383;51.114;13.666;2024-02-26T12:20:57;20.55;;;8.05;;
36353;SDS011;22383;51.114;13.666;2024-02-26T12:23:29;19.98;;;8.98;;
36353;SDS011;22383;51.114;13.666;2024-02-26T12:26:00;19.50;;;8.60;;
36353;SDS011;22383;51.114;13.666;2024-02-26T12:28:32;18.63;;;9.13;;
36353;SDS011;22383;51.114;13.666;2024-02-26T12:30:59;14.63;;;8.77;;
36353;SDS011;22383;51.114;13.666;2024-02-26T12:33:27;14.80;;;8.57;;
36353;SDS011;22383;51.114;13.666;2024-02-26T12:35:56;17.27;;;8.70;;
36353;SDS011;22383;51.114;13.666;2024-02-26T12:38:24;13.90;;;7.32;;
36353;SDS011;22383;51.114;13.666;2024-02-26T12:40:51;16.77;;;9.13;;
36353;SDS011;22383;51.114;13.666;2024-02-26T12:43:18;15.93;;;8.57;;
36353;SDS011;22383;51.114;13.666;2024-02-26T12:45:45;16.88;;;8.70;;
36353;SDS011;22383;51.114;13.666;2024-02-26T12:48:14;18.95;;;8.75;;
36353;SDS011;22383;51.114;13.666;2024-02-26T12:53:16;16.20;;;9.05;;
36353;SDS011;22383;51.114;13.666;2024-02-26T12:55:44;18.08;;;8.07;;
36353;SDS011;22383;51.114;13.666;2024-02-26T12:58:12;15.20;;;7.95;;
36353;SDS011;22383;51.114;13.666;2024-02-26T13:00:39;14.52;;;7.82;;
36353;SDS011;22383;51.114;13.666;2024-02-26T13:03:07;18.05;;;8.48;;
36353;SDS011;22383;51.114;13.666;2024-02-26T13:05:36;18.42;;;8.60;;
36353;SDS011;22383;51.114;13.666;2024-02-26T13:08:03;17.98;;;8.00;;
36353;SDS011;22383;51.114;13.666;2024-02-26T13:10:35;15.32;;;8.15;;
36353;SDS011;22383;51.114;13.666;2024-02-26T13:13:03;16.25;;;8.15;;
36353;SDS011;22383;51.114;13.666;2024-02-26T13:15:31;16.02;;;7.97;;
36353;SDS011;22383;51.114;13.666;2024-02-26T13:17:59;16.25;;;8.73;;
36353;SDS011;22383;51.114;13.666;2024-02-26T13:23:04;14.45;;;8.43;;
36353;SDS011;22383;51.114;13.666;2024-02-26T13:25:34;20.48;;;8.32;;
36353;SDS011;22383;51.114;13.666;2024-02-26T13:28:09;15.93;;;8.80;;
36353;SDS011;22383;51.114;13.666;2024-02-26T13:30:52;15.73;;;8.25;;
36353;SDS011;22383;51.114;13.666;2024-02-26T13:33:20;15.18;;;8.40;;
36353;SDS011;22383;51.114;13.666;2024-02-26T13:35:48;17.25;;;8.27;;
36353;SDS011;22383;51.114;13.666;2024-02-26T13:38:15;17.83;;;8.23;;
36353;SDS011;22383;51.114;13.666;2024-02-26T13:40:42;18.85;;;8.40;;
36353;SDS011;22383;51.114;13.666;2024-02-26T13:43:09;16.23;;;8.27;;
36353;SDS011;22383;51.114;13.666;2024-02-26T13:45:37;16.95;;;8.50;;
36353;SDS011;22383;51.114;13.666;2024-02-26T13:48:07;17.35;;;8.18;;
36353;SDS011;22383;51.114;13.666;2024-02-26T13:50:37;15.30;;;8.30;;
36353;SDS011;22383;51.114;13.666;2024-02-26T13:53:05;14.07;;;8.00;;
36353;SDS011;22383;51.114;13.666;2024-02-26T13:55:33;15.32;;;8.43;;
36353;SDS011;22383;51.114;13.666;2024-02-26T13:58:00;24.52;;;8.57;;
36353;SDS011;22383;51.114;13.666;2024-02-26T14:00:30;18.17;;;8.32;;
36353;SDS011;22383;51.114;13.666;2024-02-26T14:03:01;13.40;;;7.93;;
36353;SDS011;22383;51.114;13.666;2024-02-26T14:05:30;14.90;;;7.88;;
36353;SDS011;22383;51.114;13.666;2024-02-26T14:07:57;20.75;;;8.38;;
36353;SDS011;22383;51.114;13.666;2024-02-26T14:10:25;16.73;;;7.70;;
36353;SDS011;22383;51.114;13.666;2024-02-26T14:12:53;15.40;;;7.40;;
36353;SDS011;22383;51.114;13.666;2024-02-26T14:15:20;15.52;;;8.30;;
36353;SDS011;22383;51.114;13.666;2024-02-26T14:17:47;15.38;;;6.95;;
36353;SDS011;22383;51.114;13.666;2024-02-26T14:24:08;17.15;;;7.13;;
36353;SDS011;22383;51.114;13.666;2024-02-26T14:26:36;16.20;;;7.13;;
36353;SDS011;22383;51.114;13.666;2024-02-26T14:29:04;15.63;;;7.10;;
36353;SDS011;22383;51.114;13.666;2024-02-26T14:31:31;16.48;;;7.57;;
36353;SDS011;22383;51.114;13.666;2024-02-26T14:33:58;13.73;;;7.25;;
36353;SDS011;22383;51.114;13.666;2024-02-26T14:36:26;13.65;;;7.15;;
36353;SDS011;22383;51.114;13.666;2024-02-26T14:38:53;16.17;;;7.25;;
36353;SDS011;22383;51.114;13.666;2024-02-26T14:41:20;12.98;;;6.90;;
36353;SDS011;22383;51.114;13.666;2024-02-26T14:43:47;15.20;;;7.35;;
36353;SDS011;22383;51.114;13.666;2024-02-26T14:46:14;15.95;;;7.55;;
36353;SDS011;22383;51.114;13.666;2024-02-26T14:48:41;15.68;;;7.35;;
36353;SDS011;22383;51.114;13.666;2024-02-26T14:51:09;14.27;;;7.22;;
36353;SDS011;22383;51.114;13.666;2024-02-26T14:53:36;17.25;;;8.02;;
36353;SDS011;22383;51.114;13.666;2024-02-26T14:56:03;16.05;;;7.65;;